TimeCDT,TemperatureF,Dew PointF,Humidity,Sea Level PressureIn,VisibilityMPH,Wind Direction,Wind SpeedMPH,Gust SpeedMPH,PrecipitationIn,Events,Conditions,WindDirDegrees,DateUTC
12:54 AM,71.1,62.1,73,29.95,10.0,SSE,6.9,-,N/A,,Clear,150,2013-09-15 05:54:00
1:54 AM,69.1,61.0,75,29.94,10.0,SSE,6.9,-,N/A,,Clear,160,2013-09-15 06:54:00
2:54 AM,70.0,60.1,71,29.93,10.0,SSE,9.2,-,N/A,,Clear,160,2013-09-15 07:54:00
3:54 AM,69.1,60.1,73,29.93,10.0,SSE,9.2,-,N/A,,Clear,160,2013-09-15 08:54:00
4:54 AM,70.0,59.0,68,29.93,10.0,South,9.2,-,N/A,,Clear,170,2013-09-15 09:54:00
5:54 AM,70.0,59.0,68,29.94,10.0,South,10.4,-,N/A,,Clear,180,2013-09-15 10:54:00
6:54 AM,69.1,59.0,70,29.96,10.0,South,9.2,-,N/A,,Clear,170,2013-09-15 11:54:00
7:54 AM,69.1,59.0,70,29.97,10.0,South,8.1,-,N/A,,Clear,170,2013-09-15 12:54:00
8:54 AM,73.0,59.0,61,29.97,10.0,South,11.5,-,N/A,,Clear,180,2013-09-15 13:54:00
9:54 AM,75.9,59.0,56,29.98,10.0,South,12.7,-,N/A,,Clear,180,2013-09-15 14:54:00
10:54 AM,79.0,60.1,52,29.98,10.0,South,12.7,-,N/A,,Clear,190,2013-09-15 15:54:00
11:54 AM,84.9,62.1,46,29.97,10.0,SSW,13.8,20.7,N/A,,Clear,200,2013-09-15 16:54:00
12:54 PM,89.1,63.0,42,29.96,10.0,SSW,15.0,23.0,N/A,,Clear,210,2013-09-15 17:54:00
1:54 PM,90.0,64.0,42,29.95,10.0,SSW,11.5,-,N/A,,Clear,210,2013-09-15 18:54:00
2:54 PM,91.0,64.0,41,29.94,10.0,South,10.4,-,N/A,,Partly Cloudy,190,2013-09-15 19:54:00
3:54 PM,89.1,64.0,43,29.94,10.0,South,11.5,-,N/A,,Clear,180,2013-09-15 20:54:00
4:54 PM,90.0,64.0,42,29.92,10.0,South,12.7,-,N/A,,Clear,180,2013-09-15 21:54:00
5:54 PM,88.0,63.0,43,29.93,10.0,South,11.5,-,N/A,,Clear,170,2013-09-15 22:54:00
6:54 PM,86.0,63.0,46,29.94,10.0,South,6.9,-,N/A,,Clear,180,2013-09-15 23:54:00
7:54 PM,84.0,64.0,51,29.95,10.0,East,4.6,-,N/A,,Clear,80,2013-09-16 00:54:00
8:54 PM,81.0,66.0,60,30.01,10.0,North,8.1,-,N/A,Thunderstorm,Partly Cloudy,10,2013-09-16 01:54:00
9:51 PM,73.4,69.8,88,30.07,10.0,NNE,12.7,21.9,N/A,,Clear,20,2013-09-16 02:51:00
9:54 PM,73.0,69.1,87,30.04,10.0,NNE,15.0,-,N/A,,Clear,30,2013-09-16 02:54:00
10:54 PM,73.0,66.0,79,30.04,10.0,North,9.2,-,N/A,,Mostly Cloudy,10,2013-09-16 03:54:00
11:54 PM,73.0,64.9,76,30.04,10.0,NE,8.1,-,0.00,,Mostly Cloudy,50,2013-09-16 04:54:00